createdAt,value
2019-05-17T00:01:29.095Z,20.40
2019-05-17T00:03:56.398Z,17.57
2019-05-17T00:06:20.932Z,19.13
2019-05-17T00:08:47.263Z,21.30
2019-05-17T00:11:12.442Z,23.17
2019-05-17T00:13:38.727Z,18.23
2019-05-17T00:16:07.193Z,18.37
2019-05-17T00:18:32.520Z,18.80
2019-05-17T00:20:57.639Z,24.80
2019-05-17T00:23:22.734Z,29.13
2019-05-17T00:25:47.922Z,18.10
2019-05-17T00:28:16.070Z,20.97
2019-05-17T00:30:40.735Z,20.00
2019-05-17T00:33:07.803Z,18.47
2019-05-17T00:35:32.594Z,18.17
2019-05-17T00:37:57.689Z,19.50
2019-05-17T00:40:22.810Z,26.40
2019-05-17T00:42:48.596Z,18.30
2019-05-17T00:45:14.554Z,21.60
2019-05-17T00:47:39.666Z,23.30
2019-05-17T00:50:07.227Z,19.43
2019-05-17T00:52:31.785Z,27.03
2019-05-17T00:54:56.917Z,19.77
2019-05-17T00:57:22.054Z,28.07
2019-05-17T00:59:47.679Z,20.40
2019-05-17T01:02:12.919Z,19.60
2019-05-17T01:04:38.005Z,20.07
2019-05-17T01:07:03.310Z,23.67
2019-05-17T01:09:28.405Z,28.40
2019-05-17T01:11:53.503Z,26.03
2019-05-17T01:14:18.785Z,21.63
2019-05-17T01:16:47.326Z,21.33
2019-05-17T01:19:11.610Z,21.93
2019-05-17T01:21:36.885Z,22.07
2019-05-17T01:24:03.342Z,30.87
2019-05-17T01:26:31.421Z,27.50
2019-05-17T01:28:57.315Z,22.80
2019-05-17T01:31:22.545Z,32.13
2019-05-17T01:33:47.762Z,36.50
2019-05-17T01:36:12.855Z,21.27
2019-05-17T01:38:37.972Z,23.43
2019-05-17T01:41:03.146Z,22.43
2019-05-17T01:43:28.237Z,26.67
2019-05-17T01:45:53.365Z,26.07
2019-05-17T01:48:18.475Z,22.23
2019-05-17T01:50:43.625Z,21.60
2019-05-17T01:53:08.722Z,22.00
2019-05-17T01:55:33.863Z,23.77
2019-05-17T01:57:58.957Z,23.77
2019-05-17T02:00:26.430Z,21.50
2019-05-17T02:02:52.598Z,26.50
2019-05-17T02:05:18.358Z,20.23
2019-05-17T02:07:43.478Z,21.80
2019-05-17T02:10:09.178Z,20.73
2019-05-17T02:12:34.310Z,21.87
2019-05-17T02:14:59.407Z,18.37
2019-05-17T02:17:26.590Z,17.03
2019-05-17T02:19:51.694Z,16.63
2019-05-17T02:22:16.947Z,16.20
2019-05-17T02:24:41.997Z,16.03
2019-05-17T02:27:07.099Z,14.67
2019-05-17T02:29:32.253Z,14.77
2019-05-17T02:31:57.886Z,15.70
2019-05-17T02:34:23.363Z,13.83
2019-05-17T02:36:48.490Z,15.53
2019-05-17T02:39:13.621Z,15.37
2019-05-17T02:41:38.714Z,16.27
2019-05-17T02:44:04.047Z,14.77
2019-05-17T02:46:29.150Z,19.53
2019-05-17T02:48:54.282Z,15.33
2019-05-17T02:51:19.391Z,14.63
2019-05-17T02:53:44.499Z,16.30
2019-05-17T02:56:12.987Z,16.37
2019-05-17T02:58:37.313Z,16.00
2019-05-17T03:01:03.782Z,18.90
2019-05-17T03:03:32.114Z,14.80
2019-05-17T03:05:56.046Z,15.00
2019-05-17T03:08:23.540Z,19.03
2019-05-17T03:10:47.980Z,19.70
2019-05-17T03:13:17.143Z,15.87
2019-05-17T03:15:43.108Z,13.67
2019-05-17T03:18:06.558Z,12.73
2019-05-17T03:20:33.065Z,11.07
2019-05-17T03:22:58.344Z,13.07
2019-05-17T03:25:24.025Z,15.40
2019-05-17T03:27:49.256Z,13.10
2019-05-17T03:30:18.330Z,12.47
2019-05-17T03:32:47.834Z,14.10
2019-05-17T03:35:15.976Z,15.17
2019-05-17T03:37:38.134Z,13.83
2019-05-17T03:40:21.669Z,18.37
2019-05-17T03:42:32.826Z,18.53
2019-05-17T03:44:56.927Z,15.03
2019-05-17T03:47:22.695Z,13.93
2019-05-17T03:49:47.966Z,16.97
2019-05-17T03:52:13.724Z,17.90
2019-05-17T03:54:38.885Z,17.50
2019-05-17T03:57:03.989Z,15.07
2019-05-17T03:59:29.146Z,20.30
2019-05-17T04:01:54.248Z,19.47
2019-05-17T04:04:22.651Z,15.50
2019-05-17T04:06:46.182Z,17.23
2019-05-17T04:09:13.804Z,16.10
2019-05-17T04:11:38.001Z,17.20
2019-05-17T04:14:03.269Z,16.03
2019-05-17T04:16:29.184Z,16.57
2019-05-17T04:18:54.282Z,15.90
2019-05-17T04:21:19.406Z,18.07
2019-05-17T04:23:44.503Z,12.60
2019-05-17T04:26:09.639Z,16.20
2019-05-17T04:28:34.742Z,14.77
2019-05-17T04:31:02.565Z,13.77
2019-05-17T04:33:26.578Z,14.87
2019-05-17T04:35:54.117Z,14.53
2019-05-17T04:38:18.410Z,15.13
2019-05-17T04:40:43.511Z,14.50
2019-05-17T04:43:08.646Z,13.43
2019-05-17T04:45:33.944Z,12.50
2019-05-17T04:47:59.066Z,12.80
2019-05-17T04:50:24.159Z,12.07
2019-05-17T04:52:49.239Z,11.80
2019-05-17T04:55:15.263Z,13.07
2019-05-17T04:57:43.330Z,12.87
2019-05-17T05:00:07.878Z,13.47
2019-05-17T05:02:33.285Z,13.43
2019-05-17T05:04:58.424Z,14.43
2019-05-17T05:07:23.519Z,13.63
2019-05-17T05:09:48.735Z,15.70
2019-05-17T05:12:13.831Z,18.27
2019-05-17T05:14:38.945Z,18.23
2019-05-17T05:17:04.091Z,18.73
2019-05-17T05:19:29.181Z,17.93
2019-05-17T05:21:54.319Z,16.43
2019-05-17T05:24:19.536Z,16.80
2019-05-17T05:26:45.634Z,19.23
2019-05-17T05:29:12.759Z,17.13
2019-05-17T05:31:37.487Z,17.07
2019-05-17T05:34:02.570Z,16.30
2019-05-17T05:36:28.637Z,16.50
2019-05-17T05:38:53.761Z,15.70
2019-05-17T05:41:18.866Z,17.00
2019-05-17T05:43:43.990Z,17.57
2019-05-17T05:46:11.532Z,16.80
2019-05-17T05:48:35.841Z,17.20
2019-05-17T05:51:02.925Z,18.00
2019-05-17T05:53:27.702Z,17.77
2019-05-17T05:55:52.799Z,18.70
2019-05-17T05:58:17.902Z,18.47
2019-05-17T06:00:43.207Z,17.93
2019-05-17T06:03:09.283Z,17.23
2019-05-17T06:05:34.442Z,17.60
2019-05-17T06:07:59.536Z,18.20
2019-05-17T06:10:24.660Z,16.17
2019-05-17T06:12:51.720Z,16.20
2019-05-17T06:15:16.770Z,17.17
2019-05-17T06:17:42.861Z,17.10
2019-05-17T06:20:08.518Z,15.33
2019-05-17T06:22:33.611Z,14.90
2019-05-17T06:24:58.715Z,14.20
2019-05-17T06:27:24.124Z,14.87
2019-05-17T06:29:51.344Z,12.73
2019-05-17T06:32:15.957Z,12.23
2019-05-17T06:34:42.318Z,12.57
2019-05-17T06:37:07.685Z,13.27
2019-05-17T06:39:33.102Z,12.00
2019-05-17T06:41:58.561Z,11.07
2019-05-17T06:44:24.232Z,11.10
2019-05-17T06:46:51.758Z,11.13
2019-05-17T06:49:16.250Z,10.37
2019-05-17T06:51:42.594Z,10.67
2019-05-17T06:54:07.979Z,9.77
2019-05-17T06:56:33.154Z,9.87
2019-05-17T06:58:58.336Z,8.47
2019-05-17T07:01:23.522Z,9.33
2019-05-17T07:03:49.523Z,10.23
2019-05-17T07:06:16.329Z,9.17
2019-05-17T07:08:41.541Z,8.57
2019-05-17T07:11:06.647Z,9.43
2019-05-17T07:13:31.741Z,9.97
2019-05-17T07:15:56.883Z,9.87
2019-05-17T07:18:21.995Z,10.98
2019-05-17T07:20:47.130Z,9.93
2019-05-17T07:23:12.239Z,10.30
2019-05-17T07:25:39.435Z,9.97
2019-05-17T07:28:04.102Z,9.03
2019-05-17T07:30:30.543Z,9.45
2019-05-17T07:32:55.711Z,7.62
2019-05-17T07:35:20.807Z,8.40
2019-05-17T07:37:45.923Z,8.35
2019-05-17T07:40:11.406Z,9.43
2019-05-17T07:42:39.593Z,11.28
2019-05-17T07:45:04.798Z,11.20
2019-05-17T07:47:29.945Z,10.63
2019-05-17T07:49:55.077Z,10.97
2019-05-17T07:52:20.675Z,11.85
2019-05-17T07:54:45.783Z,11.68
2019-05-17T07:57:10.910Z,12.75
2019-05-17T07:59:36.194Z,13.10
2019-05-17T08:02:01.464Z,12.10
2019-05-17T08:04:26.602Z,10.48
2019-05-17T08:06:51.706Z,12.67
2019-05-17T08:09:16.801Z,11.22
2019-05-17T08:11:41.951Z,11.23
2019-05-17T08:14:07.065Z,11.13
2019-05-17T08:16:32.184Z,9.80
2019-05-17T08:18:57.277Z,9.97
2019-05-17T08:21:22.507Z,9.83
2019-05-17T08:23:47.601Z,11.27
2019-05-17T08:26:13.670Z,10.87
2019-05-17T08:28:40.448Z,10.97
2019-05-17T08:31:05.756Z,9.47
2019-05-17T08:33:31.101Z,11.37
2019-05-17T08:35:56.206Z,12.50
2019-05-17T08:38:21.306Z,11.20
2019-05-17T08:40:46.428Z,11.75
2019-05-17T08:43:11.517Z,10.13
2019-05-17T08:45:36.741Z,10.30
2019-05-17T08:48:01.868Z,9.43
2019-05-17T08:50:29.279Z,10.40
2019-05-17T08:52:53.858Z,11.03
2019-05-17T08:55:20.495Z,11.83
2019-05-17T08:57:45.702Z,10.33
2019-05-17T09:00:11.167Z,10.07
2019-05-17T09:02:36.322Z,9.53
2019-05-17T09:05:01.425Z,11.97
2019-05-17T09:07:26.552Z,10.37
2019-05-17T09:09:51.673Z,13.27
2019-05-17T09:12:17.048Z,9.90
2019-05-17T09:14:42.169Z,10.40
2019-05-17T09:17:07.277Z,11.63
2019-05-17T09:19:33.869Z,13.17
2019-05-17T09:21:59.901Z,13.63
2019-05-17T09:24:26.402Z,11.37
2019-05-17T09:26:51.548Z,9.93
2019-05-17T09:29:16.641Z,9.57
2019-05-17T09:31:41.779Z,9.00
2019-05-17T09:34:06.883Z,9.17
2019-05-17T09:36:32.292Z,10.33
2019-05-17T09:39:00.112Z,10.17
2019-05-17T09:41:25.076Z,10.30
2019-05-17T09:43:50.218Z,9.33
2019-05-17T09:46:15.326Z,8.83
2019-05-17T09:48:40.449Z,9.47
2019-05-17T09:51:05.539Z,9.00
2019-05-17T09:53:30.904Z,8.33
2019-05-17T09:55:56.085Z,9.17
2019-05-17T09:58:21.770Z,9.00
2019-05-17T10:00:49.188Z,9.33
2019-05-17T10:03:13.690Z,8.63
2019-05-17T10:05:40.578Z,9.43
2019-05-17T10:08:05.771Z,9.47
2019-05-17T10:10:30.897Z,8.43
2019-05-17T10:12:56.026Z,8.35
2019-05-17T10:15:21.121Z,8.70
2019-05-17T10:17:46.233Z,9.13
2019-05-17T10:20:11.374Z,9.35
2019-05-17T10:22:36.465Z,8.85
2019-05-17T10:25:01.586Z,8.18
2019-05-17T10:27:26.681Z,8.77
2019-05-17T10:29:51.942Z,9.70
2019-05-17T10:32:17.103Z,9.55
2019-05-17T10:34:42.197Z,10.23
2019-05-17T10:37:07.313Z,8.98
2019-05-17T10:39:32.405Z,8.78
2019-05-17T10:41:57.530Z,8.35
2019-05-17T10:44:22.626Z,9.38
2019-05-17T10:46:47.985Z,8.45
2019-05-17T10:49:13.085Z,8.80
2019-05-17T10:51:40.133Z,8.73
2019-05-17T10:54:04.966Z,8.10
2019-05-17T10:56:30.055Z,8.33
2019-05-17T10:58:55.170Z,8.83
2019-05-17T11:01:20.493Z,7.67
2019-05-17T11:03:45.659Z,8.38
2019-05-17T11:06:11.105Z,9.05
2019-05-17T11:08:36.257Z,9.33
2019-05-17T11:11:01.374Z,9.93
2019-05-17T11:13:26.469Z,9.00
2019-05-17T11:15:51.676Z,8.45
2019-05-17T11:18:16.768Z,8.80
2019-05-17T11:20:41.854Z,8.83
2019-05-17T11:23:06.996Z,9.45
2019-05-17T11:25:32.094Z,8.80
2019-05-17T11:27:57.209Z,8.63
2019-05-17T11:30:22.301Z,8.98
2019-05-17T11:32:47.574Z,8.90
2019-05-17T11:35:12.669Z,8.08
2019-05-17T11:37:37.766Z,8.30
2019-05-17T11:40:02.894Z,8.53
2019-05-17T11:42:28.067Z,8.43
2019-05-17T11:44:53.198Z,8.18
2019-05-17T11:47:18.542Z,8.45
2019-05-17T11:49:43.648Z,9.38
2019-05-17T11:52:08.747Z,8.00
2019-05-17T11:54:34.083Z,7.80
2019-05-17T11:56:59.216Z,8.05
2019-05-17T11:59:24.542Z,7.22
2019-05-17T12:01:49.679Z,7.20
2019-05-17T12:04:15.119Z,7.53
2019-05-17T12:06:40.714Z,7.50
2019-05-17T12:09:06.838Z,7.65
2019-05-17T12:11:31.934Z,7.12
2019-05-17T12:13:57.233Z,7.12
2019-05-17T12:16:22.323Z,7.15
2019-05-17T12:18:47.531Z,6.00
2019-05-17T12:21:12.617Z,6.47
2019-05-17T12:23:37.718Z,6.50
2019-05-17T12:26:03.151Z,6.80
2019-05-17T12:28:28.418Z,7.15
2019-05-17T12:30:53.548Z,7.50
2019-05-17T12:33:18.658Z,6.90
2019-05-17T12:35:43.760Z,7.75
2019-05-17T12:38:08.878Z,6.90
2019-05-17T12:40:33.965Z,6.05
2019-05-17T12:42:59.077Z,6.40
2019-05-17T12:45:24.165Z,6.40
2019-05-17T12:47:49.263Z,6.28
2019-05-17T12:50:15.442Z,6.17
2019-05-17T12:52:40.803Z,5.70
2019-05-17T12:55:05.990Z,6.28
2019-05-17T12:57:31.089Z,6.40
2019-05-17T12:59:56.185Z,6.12
2019-05-17T13:02:21.310Z,6.12
2019-05-17T13:04:46.470Z,6.58
2019-05-17T13:07:11.609Z,5.78
2019-05-17T13:09:36.702Z,5.95
2019-05-17T13:12:01.807Z,5.95
2019-05-17T13:14:26.925Z,6.30
2019-05-17T13:16:52.065Z,6.00
2019-05-17T13:19:17.201Z,6.10
2019-05-17T13:21:42.290Z,6.40
2019-05-17T13:24:07.426Z,7.62
2019-05-17T13:26:32.526Z,6.70
2019-05-17T13:28:57.598Z,6.40
2019-05-17T13:31:22.742Z,8.65
2019-05-17T13:33:47.826Z,6.45
2019-05-17T13:36:14.743Z,6.47
2019-05-17T13:38:39.812Z,6.62
2019-05-17T13:41:05.028Z,7.10
2019-05-17T13:43:30.205Z,6.28
2019-05-17T13:45:55.368Z,6.55
2019-05-17T13:48:20.565Z,6.45
2019-05-17T13:50:46.730Z,6.00
2019-05-17T13:53:11.861Z,5.92
2019-05-17T13:55:36.950Z,6.17
2019-05-17T13:58:02.063Z,6.33
2019-05-17T14:00:27.234Z,6.20
2019-05-17T14:02:52.870Z,6.40
2019-05-17T14:05:18.217Z,6.03
2019-05-17T14:07:43.310Z,6.58
2019-05-17T14:10:24.567Z,6.45
2019-05-17T14:12:35.546Z,5.80
2019-05-17T14:15:00.883Z,5.78
2019-05-17T14:17:26.277Z,6.20
2019-05-17T14:19:51.397Z,5.67
2019-05-17T14:22:16.486Z,5.75
2019-05-17T14:24:41.624Z,5.92
2019-05-17T14:27:06.719Z,5.70
2019-05-17T14:29:31.858Z,5.50
2019-05-17T14:31:57.910Z,5.53
2019-05-17T14:34:23.012Z,5.65
2019-05-17T14:36:48.113Z,5.60
2019-05-17T14:39:13.207Z,5.65
2019-05-17T14:41:38.322Z,5.28
2019-05-17T14:44:03.437Z,5.87
2019-05-17T14:46:28.550Z,5.90
2019-05-17T14:48:53.644Z,5.50
2019-05-17T14:51:18.834Z,5.55
2019-05-17T14:53:44.223Z,4.83
2019-05-17T14:56:09.314Z,5.30
2019-05-17T14:58:34.459Z,5.70
2019-05-17T15:00:59.542Z,5.62
2019-05-17T15:03:25.231Z,5.60
2019-05-17T15:05:50.486Z,5.08
2019-05-17T15:08:15.612Z,4.92
2019-05-17T15:10:40.719Z,5.12
2019-05-17T15:13:05.801Z,4.95
2019-05-17T15:15:30.913Z,5.25
2019-05-17T15:17:56.256Z,5.47
2019-05-17T15:20:21.491Z,5.20
2019-05-17T15:22:46.578Z,5.05
2019-05-17T15:25:12.655Z,5.15
2019-05-17T15:27:41.055Z,4.90
2019-05-17T15:30:06.513Z,5.12
2019-05-17T15:32:31.658Z,5.42
2019-05-17T15:34:56.826Z,5.35
2019-05-17T15:37:21.921Z,4.80
2019-05-17T15:39:47.050Z,4.85
2019-05-17T15:42:12.159Z,5.15
2019-05-17T15:44:37.642Z,5.12
2019-05-17T15:47:04.490Z,5.58
2019-05-17T15:49:29.580Z,5.20
2019-05-17T15:51:54.697Z,5.33
2019-05-17T15:54:19.786Z,5.58
2019-05-17T15:56:44.902Z,5.12
2019-05-17T15:59:10.009Z,4.80
2019-05-17T16:01:35.332Z,4.83
2019-05-17T16:04:00.438Z,5.30
2019-05-17T16:06:25.601Z,4.83
2019-05-17T16:08:50.715Z,4.47
2019-05-17T16:11:15.815Z,4.75
2019-05-17T16:13:41.007Z,4.45
2019-05-17T16:16:06.133Z,4.37
2019-05-17T16:18:31.354Z,4.12
2019-05-17T16:20:56.475Z,4.72
2019-05-17T16:23:21.574Z,4.72
2019-05-17T16:25:46.703Z,4.50
2019-05-17T16:28:11.798Z,4.30
2019-05-17T16:30:36.942Z,4.60
2019-05-17T16:33:02.038Z,4.87
2019-05-17T16:35:27.434Z,4.22
2019-05-17T16:37:52.573Z,4.67
2019-05-17T16:40:17.682Z,5.00
2019-05-17T16:42:42.838Z,4.83
2019-05-17T16:45:08.570Z,4.62
2019-05-17T16:47:33.701Z,4.45
2019-05-17T16:49:58.837Z,4.20
2019-05-17T16:52:23.937Z,4.42
2019-05-17T16:54:49.066Z,4.95
2019-05-17T16:57:14.168Z,4.70
2019-05-17T16:59:39.287Z,4.87
2019-05-17T17:02:04.556Z,4.80
2019-05-17T17:04:29.669Z,4.72
2019-05-17T17:06:54.799Z,4.47
2019-05-17T17:09:20.006Z,4.70
2019-05-17T17:11:45.782Z,4.60
2019-05-17T17:14:11.230Z,4.90
2019-05-17T17:16:36.374Z,4.33
2019-05-17T17:19:01.472Z,4.90
2019-05-17T17:21:26.590Z,5.00
2019-05-17T17:23:51.669Z,5.28
2019-05-17T17:26:17.110Z,5.30
2019-05-17T17:28:42.446Z,5.00
2019-05-17T17:31:11.759Z,5.43
2019-05-17T17:33:36.861Z,5.72
2019-05-17T17:36:01.977Z,5.57
2019-05-17T17:38:27.090Z,5.90
2019-05-17T17:40:52.195Z,5.83
2019-05-17T17:43:17.578Z,6.07
2019-05-17T17:45:42.676Z,5.87
2019-05-17T17:48:07.780Z,5.83
2019-05-17T17:50:33.872Z,5.40
2019-05-17T17:52:58.965Z,5.57
2019-05-17T17:55:24.189Z,6.10
2019-05-17T17:57:49.520Z,6.07
2019-05-17T18:00:15.562Z,5.97
2019-05-17T18:02:40.762Z,6.30
2019-05-17T18:05:06.722Z,6.77
2019-05-17T18:07:31.974Z,6.37
2019-05-17T18:09:57.049Z,6.87
2019-05-17T18:12:22.185Z,6.00
2019-05-17T18:14:47.406Z,6.80
2019-05-17T18:17:12.457Z,6.63
2019-05-17T18:19:37.574Z,6.10
2019-05-17T18:22:02.673Z,5.70
2019-05-17T18:24:27.889Z,6.63
2019-05-17T18:26:52.980Z,6.03
2019-05-17T18:29:18.074Z,6.77
2019-05-17T18:31:43.242Z,6.13
2019-05-17T18:34:08.333Z,6.90
2019-05-17T18:36:33.446Z,6.60
2019-05-17T18:38:58.853Z,6.80
2019-05-17T18:41:23.998Z,7.10
2019-05-17T18:43:49.229Z,7.27
2019-05-17T18:46:14.326Z,6.87
2019-05-17T18:48:39.440Z,7.40
2019-05-17T18:51:04.525Z,8.40
2019-05-17T18:53:29.633Z,7.67
2019-05-17T18:55:54.717Z,8.33
2019-05-17T18:58:19.990Z,7.83
2019-05-17T19:00:45.604Z,8.50
2019-05-17T19:03:10.677Z,8.13
2019-05-17T19:05:35.778Z,8.20
2019-05-17T19:08:00.917Z,8.30
2019-05-17T19:10:26.043Z,8.33
2019-05-17T19:12:51.147Z,9.00
2019-05-17T19:15:16.521Z,8.60
2019-05-17T19:17:41.634Z,8.13
2019-05-17T19:20:07.125Z,8.33
2019-05-17T19:22:32.261Z,8.80
2019-05-17T19:24:57.358Z,8.53
2019-05-17T19:27:22.465Z,8.13
2019-05-17T19:29:47.554Z,8.90
2019-05-17T19:32:12.653Z,9.20
2019-05-17T19:34:37.765Z,8.90
2019-05-17T19:37:02.938Z,9.83
2019-05-17T19:39:28.306Z,9.40
2019-05-17T19:41:53.677Z,9.20
2019-05-17T19:44:18.895Z,9.33
2019-05-17T19:46:43.986Z,9.67
2019-05-17T19:49:09.077Z,9.80
2019-05-17T19:51:34.194Z,9.90
2019-05-17T19:54:00.568Z,9.93
2019-05-17T19:56:25.790Z,10.03
2019-05-17T19:58:51.401Z,9.60
2019-05-17T20:01:16.795Z,10.80
2019-05-17T20:03:42.155Z,11.37
2019-05-17T20:06:07.526Z,10.87
2019-05-17T20:08:32.749Z,11.13
2019-05-17T20:10:57.852Z,11.53
2019-05-17T20:13:23.065Z,12.60
2019-05-17T20:15:48.174Z,12.17
2019-05-17T20:18:13.317Z,12.07
2019-05-17T20:20:38.434Z,12.23
2019-05-17T20:23:03.603Z,11.83
2019-05-17T20:25:28.742Z,12.10
2019-05-17T20:27:53.841Z,12.60
2019-05-17T20:30:19.166Z,13.03
2019-05-17T20:32:44.263Z,12.87
2019-05-17T20:35:09.564Z,13.50
2019-05-17T20:37:34.686Z,13.57
2019-05-17T20:39:59.794Z,14.03
2019-05-17T20:42:25.154Z,14.23
2019-05-17T20:44:50.505Z,14.07
2019-05-17T20:47:15.601Z,13.80
2019-05-17T20:49:40.717Z,14.27
2019-05-17T20:52:05.822Z,14.30
2019-05-17T20:54:30.974Z,14.93
2019-05-17T20:56:56.106Z,14.80
2019-05-17T20:59:21.246Z,15.47
2019-05-17T21:01:46.342Z,14.77
2019-05-17T21:04:11.454Z,14.53
2019-05-17T21:06:36.578Z,13.97
2019-05-17T21:09:01.837Z,13.90
2019-05-17T21:11:28.666Z,14.50
2019-05-17T21:13:53.765Z,13.47
2019-05-17T21:16:18.870Z,14.00
2019-05-17T21:18:43.999Z,13.70
2019-05-17T21:21:09.095Z,13.50
2019-05-17T21:23:34.482Z,13.90
2019-05-17T21:25:59.585Z,13.70
2019-05-17T21:28:24.741Z,12.93
2019-05-17T21:30:49.930Z,13.90
2019-05-17T21:33:15.305Z,13.47
2019-05-17T21:35:40.426Z,13.87
2019-05-17T21:38:05.526Z,13.43
2019-05-17T21:40:30.752Z,14.03
2019-05-17T21:42:55.867Z,13.83
2019-05-17T21:45:20.966Z,14.00
2019-05-17T21:47:46.090Z,14.07
2019-05-17T21:50:11.326Z,14.17
2019-05-17T21:52:36.494Z,13.10
2019-05-17T21:55:01.604Z,13.77
2019-05-17T21:57:26.705Z,13.40
2019-05-17T21:59:51.830Z,14.03
2019-05-17T22:02:17.031Z,14.00
2019-05-17T22:04:42.157Z,14.57
2019-05-17T22:07:07.325Z,14.17
2019-05-17T22:09:32.613Z,15.17
2019-05-17T22:12:00.421Z,16.00
2019-05-17T22:14:25.517Z,15.40
2019-05-17T22:16:50.712Z,15.00
2019-05-17T22:19:15.814Z,15.80
2019-05-17T22:21:40.975Z,15.77
2019-05-17T22:24:06.346Z,15.57
2019-05-17T22:26:31.690Z,15.47
2019-05-17T22:28:56.799Z,16.47
2019-05-17T22:31:21.898Z,15.53
2019-05-17T22:33:47.025Z,15.30
2019-05-17T22:36:12.138Z,15.97
2019-05-17T22:38:37.282Z,16.53
2019-05-17T22:41:02.376Z,15.53
2019-05-17T22:43:27.477Z,16.73
2019-05-17T22:45:52.609Z,15.70
2019-05-17T22:48:17.701Z,16.77
2019-05-17T22:50:43.885Z,16.43
2019-05-17T22:53:08.967Z,16.77
2019-05-17T22:55:34.141Z,16.40
2019-05-17T22:57:59.235Z,15.57
2019-05-17T23:00:24.373Z,15.73
2019-05-17T23:02:49.483Z,17.27
2019-05-17T23:05:14.584Z,18.47
2019-05-17T23:07:39.733Z,18.37
2019-05-17T23:10:05.293Z,17.57
2019-05-17T23:12:30.395Z,16.43
2019-05-17T23:14:55.519Z,18.90
2019-05-17T23:17:20.618Z,18.77
2019-05-17T23:19:45.766Z,18.27
2019-05-17T23:22:10.861Z,19.00
2019-05-17T23:24:35.966Z,20.33
2019-05-17T23:27:01.083Z,19.13
2019-05-17T23:29:26.183Z,20.70
2019-05-17T23:31:51.317Z,19.87
2019-05-17T23:34:16.418Z,20.47
2019-05-17T23:36:41.572Z,21.23
2019-05-17T23:39:07.282Z,22.53
2019-05-17T23:41:32.410Z,19.93
2019-05-17T23:43:57.759Z,21.17
2019-05-17T23:46:22.851Z,21.17
2019-05-17T23:48:47.965Z,21.43
2019-05-17T23:51:13.069Z,21.33
2019-05-17T23:53:38.202Z,22.47
2019-05-17T23:56:03.562Z,21.67
2019-05-17T23:58:28.861Z,22.57
